METAR Data
IDs: Format: Raw Decoded Include TAF

Data at: 0828 UTC 07 Dec 2021

KMAI 070810Z AUTO 00000KT 1/2SM FG VV002 16/16 A3003 RMK AO2 T01560156 $
KMAI 070800Z AUTO 00000KT 1 3/4SM BR OVC002 16/16 A3003 RMK AO2 T01610161 $
KMAI 070753Z AUTO 00000KT 4SM BR OVC002 16/16 A3003 RMK AO2 SLP168 T01610161 $
KMAI 070733Z AUTO 32004KT 9SM OVC004 16/16 A3004 RMK AO2 CIG 002V006 T01610161 $
KMAI 070653Z AUTO 31004KT 10SM OVC005 16/16 A3003 RMK AO2 SLP168 T01610161 $
KMAI 070644Z AUTO 31005KT 10SM BKN005 16/16 A3003 RMK AO2 T01610161 $
KMAI 070637Z AUTO 31007KT 10SM BKN004 16/16 A3004 RMK AO2 T01610161 $
KMAI 070553Z AUTO 17008KT 10SM FEW003 BKN110 16/16 A3001 RMK AO2 PRESFR SLP160 60025 T01610161 10211 20161 402500139 58022 $
KMAI 070453Z AUTO 21003KT 10SM FEW004 16/16 A3006 RMK AO2 SLP177 T01610161 TSNO
KMAI 070448Z AUTO 21004KT 10SM SCT004 16/16 A3006 RMK AO2 TSNO
KMAI 070407Z AUTO 00000KT 10SM BKN004 OVC095 17/17 A3007 RMK AO2 T01670167
KMAI 070353Z AUTO 00000KT 10SM SCT003 OVC095 17/17 A3007 RMK AO2 SLP182 T01670167
KMAI 070350Z AUTO 00000KT 10SM FEW003 BKN095 17/17 A3007 RMK AO2
KMAI 070327Z AUTO 00000KT 10SM SCT028 OVC100 17/17 A3008 RMK AO2 T01670167
KMAI 070253Z AUTO 11003KT 10SM OVC027 17/17 A3008 RMK AO2 RAE32 SLP185 P0009 60025 T01670167 50011
KMAI 070229Z AUTO 10003KT 10SM -RA FEW020 BKN027 OVC090 17/17 A3008 RMK AO2 P0009 T01670167
KMAI 070153Z AUTO 05005KT 4SM RA BR FEW015 OVC034 17/17 A3009 RMK AO2 SLP188 P0007 T01670167
KMAI 070108Z AUTO 04007KT 10SM -RA OVC030 17/17 A3008 RMK AO2 P0001 T01670167
KMAI 070053Z AUTO 05008KT 10SM -RA FEW020 OVC028 17/16 A3008 RMK AO2 RAB26 SLP183 P0009 T01720161
KMAI 070032Z AUTO 01015G19KT 7SM +RA SCT017 BKN026 OVC045 18/16 A3006 RMK AO2 RAB26 P0003 T01830156
KMAI 062353Z AUTO 19003KT 10SM FEW050 OVC100 21/18 A3005 RMK AO2 LTG DSNT N SLP174 T02060183 10250 20206 53015
KMAI 062253Z AUTO 21007KT 10SM FEW090 22/18 A3002 RMK AO2 SLP165 T02170183
KMAI 062153Z AUTO 22006KT 10SM BKN031 23/18 A3002 RMK AO2 SLP163 T02280178
KMAI 062053Z AUTO 22008KT 10SM CLR 23/18 A3000 RMK AO2 SLP159 T02330178 56016
KMAI 061953Z AUTO 22009KT 10SM BKN034 BKN041 24/17 A3001 RMK AO2 SLP162 T02390172
KMAI 061853Z AUTO 23009KT 10SM FEW030 SCT036 BKN100 25/17 A3002 RMK AO2 SLP165 T02500172
KMAI 061823Z AUTO 23010KT 10SM SCT027 BKN036 OVC100 24/17 A3003 RMK AO2 T02440172
KMAI 061813Z AUTO 23005KT 10SM BKN027 BKN035 24/17 A3004 RMK AO2 T02440172
KMAI 061753Z AUTO 22008KT 10SM SCT026 BKN055 24/17 A3005 RMK AO2 SLP175 T02390172 10244 20139 58016
KMAI 061653Z AUTO 21011KT 10SM SCT022 SCT027 23/17 A3008 RMK AO2 SLP185 T02280172
KMAI 061639Z AUTO 23012KT 10SM SCT022 23/17 A3009 RMK AO2 T02280172
KMAI 061632Z AUTO 21009KT 10SM BKN022 22/17 A3010 RMK AO2 T02220172
KMAI 061553Z AUTO 21010KT 10SM CLR 21/17 A3009 RMK AO2 SLP189 T02110167
KMAI 061500Z AUTO 17005KT 10SM SCT004 17/16 A3010 RMK AO2 T01670161
KMAI 061453Z AUTO 17005KT 10SM BKN004 17/17 A3010 RMK AO2 SLP191 T01670167 55000
KMAI 061428Z AUTO 17006KT 7SM OVC002 16/16 A3009 RMK AO2 T01560156
KMAI 061421Z AUTO 17006KT 2 1/2SM BR OVC002 16/16 A3009 RMK AO2 T01560156
KMAI 061353Z AUTO 16005KT 1/2SM FG VV002 15/15 A3009 RMK AO2 SLP188 T01500150
KMAI 061326Z AUTO 18004KT 1/4SM FG VV002 14/14 A3010 RMK AO2 T01440144
KMAI 061300Z AUTO 16004KT M1/4SM FG VV002 14/14 A3010 RMK AO2 T01390139
KMAI 061253Z AUTO 15004KT 1/4SM FG VV002 14/14 A3010 RMK AO2 SLP191 T01390139
KMAI 061249Z AUTO 15004KT 1/4SM FG VV002 14/14 A3010 RMK AO2
KMAI 061226Z AUTO 15005KT 1/2SM FG VV002 14/14 A3010 RMK AO2 T01440144
KMAI 061207Z AUTO 15003KT 1/4SM FG VV002 14/14 A3009 RMK AO2 T01440144
KMAI 061153Z AUTO 17003KT 1/2SM FG VV002 14/14 A3009 RMK AO2 SLP189 T01440144 10156 20144 55001
KMAI 061130Z AUTO 20003KT 3/4SM BR VV002 14/14 A3009 RMK AO2 T01440144
KMAI 061112Z AUTO 17003KT 1SM BR OVC002 14/14 A3009 RMK AO2 T01440144
KMAI 061103Z AUTO 17004KT 3/4SM BR OVC002 14/14 A3009 RMK AO2 T01440144
KMAI 061053Z AUTO 16005KT 1SM BR OVC002 14/14 A3008 RMK AO2 SLP186 T01440144
KMAI 061035Z AUTO 17006KT 1 3/4SM BR OVC002 15/15 A3009 RMK AO2 T01500150
KMAI 061000Z AUTO 16003KT 4SM BR OVC002 14/14 A3008 RMK AO2 T01440144
KMAI 060953Z AUTO 19004KT 2 1/2SM BR OVC002 14/14 A3008 RMK AO2 SLP186 T01440144
KMAI 060944Z AUTO 00000KT 2SM BR OVC002 15/15 A3008 RMK AO2 T01500150
KMAI 060923Z AUTO 16004KT 1 1/2SM BR OVC002 15/15 A3008 RMK AO2 T01500150
KMAI 060906Z AUTO 19003KT 1/2SM FG OVC002 14/14 A3009 RMK AO2 T01440144
KMAI 060853Z AUTO 21004KT 1 1/2SM BR OVC002 14/14 A3010 RMK AO2 SLP190 T01440144 55002
KMAI 060851Z AUTO 20003KT 1 1/4SM BR OVC002 15/15 A3009 RMK AO2
KMAI 060820Z AUTO 18004KT 1/2SM FG VV002 15/15 A3009 RMK AO2 T01500150
KMAI 060753Z AUTO 16005KT 1/4SM FG VV002 15/15 A3009 RMK AO2 SLP190 T01500150
KMAI 060717Z AUTO 19004KT 1/4SM FG VV002 15/15 A3010 RMK AO2 T01500150
KMAI 060653Z AUTO 18006KT 3/4SM BR VV002 16/16 A3010 RMK AO2 SLP192 T01560156
KMAI 060553Z AUTO 17005KT 3/4SM BR VV002 16/16 A3010 RMK AO2 SLP192 T01560156 10172 20144 402390089 55010
KMAI 060550Z AUTO 18004KT 3/4SM BR VV002 16/16 A3010 RMK AO2
KMAI 060540Z AUTO 16004KT 1 1/4SM BR OVC002 16/16 A3010 RMK AO2 T01560156
KMAI 060532Z AUTO 17003KT 2SM BR OVC002 16/16 A3011 RMK AO2 T01560156
KMAI 060521Z AUTO 16005KT 4SM BR BKN003 16/15 A3011 RMK AO2 T01560150
KMAI 060512Z AUTO 15005KT 6SM BR SCT003 15/15 A3011 RMK AO2 T01500150
KMAI 060453Z AUTO 17003KT 7SM CLR 15/15 A3012 RMK AO2 SLP198 T01500150
KMAI 060353Z AUTO 17005KT 10SM CLR 16/16 A3013 RMK AO2 SLP202 T01560156
KMAI 060253Z AUTO 17005KT 10SM CLR 16/15 A3013 RMK AO2 SLP203 T01610150 51013
KMAI 060153Z AUTO 16004KT 10SM CLR 17/15 A3012 RMK AO2 SLP199 T01670150
KMAI 060053Z AUTO 17005KT 10SM CLR 17/13 A3012 RMK AO2 SLP199 T01670133
KMAI 052353Z AUTO 00000KT 10SM CLR 16/13 A3010 RMK AO2 SLP190 T01610128 10239 20161 53007
KMAI 052253Z AUTO 13003KT 10SM FEW043 20/13 A3009 RMK AO2 SLP187 T02000128
KMAI 052153Z AUTO 15003KT 10SM CLR 22/13 A3008 RMK AO2 SLP184 T02220128
KMAI 052053Z AUTO 20005KT 10SM CLR 23/12 A3008 RMK AO2 SLP183 T02330122 56017